sensor_id;sensor_type;location;lat;lon;timestamp;P1;durP1;ratioP1;P2;durP2;ratioP2
22320;SDS011;11328;53.928;18.522;2023-07-31T00:00:21;8.50;;;6.18;;
22320;SDS011;11328;53.928;18.522;2023-07-31T00:02:47;8.80;;;6.15;;
22320;SDS011;11328;53.928;18.522;2023-07-31T00:05:15;10.93;;;6.07;;
22320;SDS011;11328;53.928;18.522;2023-07-31T00:07:42;10.52;;;6.35;;
22320;SDS011;11328;53.928;18.522;2023-07-31T00:10:09;10.45;;;5.75;;
22320;SDS011;11328;53.928;18.522;2023-07-31T00:12:37;12.23;;;6.35;;
22320;SDS011;11328;53.928;18.522;2023-07-31T00:15:09;11.45;;;6.82;;
22320;SDS011;11328;53.928;18.522;2023-07-31T00:17:37;11.73;;;7.05;;
22320;SDS011;11328;53.928;18.522;2023-07-31T00:20:04;11.10;;;6.90;;
22320;SDS011;11328;53.928;18.522;2023-07-31T00:22:31;11.23;;;6.75;;
22320;SDS011;11328;53.928;18.522;2023-07-31T00:24:58;12.43;;;6.40;;
22320;SDS011;11328;53.928;18.522;2023-07-31T00:27:25;11.23;;;6.68;;
22320;SDS011;11328;53.928;18.522;2023-07-31T00:29:53;10.80;;;6.35;;
22320;SDS011;11328;53.928;18.522;2023-07-31T00:32:19;11.10;;;6.28;;
22320;SDS011;11328;53.928;18.522;2023-07-31T00:34:46;9.32;;;5.55;;
22320;SDS011;11328;53.928;18.522;2023-07-31T00:37:13;9.20;;;5.30;;
22320;SDS011;11328;53.928;18.522;2023-07-31T00:39:41;12.15;;;5.43;;
22320;SDS011;11328;53.928;18.522;2023-07-31T00:42:08;9.52;;;5.57;;
22320;SDS011;11328;53.928;18.522;2023-07-31T00:44:35;11.18;;;5.20;;
22320;SDS011;11328;53.928;18.522;2023-07-31T00:47:02;12.57;;;6.18;;
22320;SDS011;11328;53.928;18.522;2023-07-31T00:49:29;10.43;;;5.82;;
22320;SDS011;11328;53.928;18.522;2023-07-31T00:51:56;9.77;;;5.57;;
22320;SDS011;11328;53.928;18.522;2023-07-31T00:54:24;11.48;;;5.45;;
22320;SDS011;11328;53.928;18.522;2023-07-31T00:56:52;14.57;;;5.57;;
22320;SDS011;11328;53.928;18.522;2023-07-31T00:59:20;8.93;;;5.22;;
22320;SDS011;11328;53.928;18.522;2023-07-31T01:01:47;9.40;;;6.00;;
22320;SDS011;11328;53.928;18.522;2023-07-31T01:04:16;12.85;;;7.18;;
22320;SDS011;11328;53.928;18.522;2023-07-31T01:06:48;13.00;;;5.90;;
22320;SDS011;11328;53.928;18.522;2023-07-31T01:12:19;11.32;;;5.53;;
22320;SDS011;11328;53.928;18.522;2023-07-31T01:15:08;9.60;;;5.72;;
22320;SDS011;11328;53.928;18.522;2023-07-31T01:17:37;10.63;;;5.90;;
22320;SDS011;11328;53.928;18.522;2023-07-31T01:20:07;9.82;;;5.78;;
22320;SDS011;11328;53.928;18.522;2023-07-31T01:26:19;10.07;;;5.80;;
22320;SDS011;11328;53.928;18.522;2023-07-31T01:28:54;13.25;;;6.70;;
22320;SDS011;11328;53.928;18.522;2023-07-31T01:31:33;11.20;;;6.05;;
22320;SDS011;11328;53.928;18.522;2023-07-31T01:34:03;9.38;;;5.90;;
22320;SDS011;11328;53.928;18.522;2023-07-31T01:36:32;11.20;;;5.68;;
22320;SDS011;11328;53.928;18.522;2023-07-31T01:38:59;9.57;;;6.05;;
22320;SDS011;11328;53.928;18.522;2023-07-31T01:41:27;12.30;;;6.57;;
22320;SDS011;11328;53.928;18.522;2023-07-31T01:43:55;10.70;;;6.30;;
22320;SDS011;11328;53.928;18.522;2023-07-31T01:46:22;11.73;;;5.93;;
22320;SDS011;11328;53.928;18.522;2023-07-31T01:48:49;12.02;;;6.03;;
22320;SDS011;11328;53.928;18.522;2023-07-31T01:51:16;11.70;;;5.88;;
22320;SDS011;11328;53.928;18.522;2023-07-31T01:53:43;13.25;;;6.50;;
22320;SDS011;11328;53.928;18.522;2023-07-31T01:56:10;14.27;;;5.72;;
22320;SDS011;11328;53.928;18.522;2023-07-31T01:58:37;10.07;;;5.95;;
22320;SDS011;11328;53.928;18.522;2023-07-31T02:01:03;11.20;;;5.85;;
22320;SDS011;11328;53.928;18.522;2023-07-31T02:03:30;13.00;;;5.50;;
22320;SDS011;11328;53.928;18.522;2023-07-31T02:05:57;11.90;;;5.78;;
22320;SDS011;11328;53.928;18.522;2023-07-31T02:08:24;9.93;;;5.50;;
22320;SDS011;11328;53.928;18.522;2023-07-31T02:10:51;8.48;;;5.10;;
22320;SDS011;11328;53.928;18.522;2023-07-31T02:13:20;11.80;;;5.25;;
22320;SDS011;11328;53.928;18.522;2023-07-31T02:15:47;11.15;;;5.57;;
22320;SDS011;11328;53.928;18.522;2023-07-31T02:18:14;10.60;;;4.60;;
22320;SDS011;11328;53.928;18.522;2023-07-31T02:20:41;9.43;;;4.88;;
22320;SDS011;11328;53.928;18.522;2023-07-31T02:23:08;12.23;;;4.97;;
22320;SDS011;11328;53.928;18.522;2023-07-31T02:25:35;8.63;;;4.70;;
22320;SDS011;11328;53.928;18.522;2023-07-31T02:28:02;11.18;;;5.20;;
22320;SDS011;11328;53.928;18.522;2023-07-31T02:30:29;10.65;;;5.10;;
22320;SDS011;11328;53.928;18.522;2023-07-31T02:32:56;13.57;;;5.15;;
22320;SDS011;11328;53.928;18.522;2023-07-31T02:35:23;9.32;;;5.15;;
22320;SDS011;11328;53.928;18.522;2023-07-31T02:37:50;11.60;;;4.93;;
22320;SDS011;11328;53.928;18.522;2023-07-31T02:40:17;9.20;;;4.63;;
22320;SDS011;11328;53.928;18.522;2023-07-31T02:42:44;10.65;;;5.07;;
22320;SDS011;11328;53.928;18.522;2023-07-31T02:45:10;9.40;;;4.53;;
22320;SDS011;11328;53.928;18.522;2023-07-31T02:47:37;11.30;;;4.20;;
22320;SDS011;11328;53.928;18.522;2023-07-31T02:50:05;12.38;;;4.80;;
22320;SDS011;11328;53.928;18.522;2023-07-31T02:52:32;11.38;;;4.38;;
22320;SDS011;11328;53.928;18.522;2023-07-31T02:54:59;8.40;;;3.58;;
22320;SDS011;11328;53.928;18.522;2023-07-31T02:57:26;11.95;;;4.00;;
22320;SDS011;11328;53.928;18.522;2023-07-31T02:59:53;13.77;;;4.15;;
22320;SDS011;11328;53.928;18.522;2023-07-31T03:02:20;7.57;;;3.90;;
22320;SDS011;11328;53.928;18.522;2023-07-31T03:04:47;9.73;;;4.40;;
22320;SDS011;11328;53.928;18.522;2023-07-31T03:07:14;10.68;;;4.32;;
22320;SDS011;11328;53.928;18.522;2023-07-31T03:09:41;8.90;;;4.07;;
22320;SDS011;11328;53.928;18.522;2023-07-31T03:12:08;8.70;;;3.30;;
22320;SDS011;11328;53.928;18.522;2023-07-31T03:14:35;7.90;;;3.25;;
22320;SDS011;11328;53.928;18.522;2023-07-31T03:17:02;8.05;;;3.33;;
22320;SDS011;11328;53.928;18.522;2023-07-31T03:19:32;11.43;;;3.95;;
22320;SDS011;11328;53.928;18.522;2023-07-31T03:21:59;9.50;;;3.65;;
22320;SDS011;11328;53.928;18.522;2023-07-31T03:24:27;10.68;;;3.92;;
22320;SDS011;11328;53.928;18.522;2023-07-31T03:26:55;13.13;;;4.20;;
22320;SDS011;11328;53.928;18.522;2023-07-31T03:29:22;12.18;;;4.30;;
22320;SDS011;11328;53.928;18.522;2023-07-31T03:31:50;9.15;;;3.70;;
22320;SDS011;11328;53.928;18.522;2023-07-31T03:34:17;12.07;;;3.58;;
22320;SDS011;11328;53.928;18.522;2023-07-31T03:36:44;9.75;;;3.60;;
22320;SDS011;11328;53.928;18.522;2023-07-31T03:39:11;9.02;;;3.80;;
22320;SDS011;11328;53.928;18.522;2023-07-31T03:41:38;12.57;;;4.32;;
22320;SDS011;11328;53.928;18.522;2023-07-31T03:44:05;12.07;;;4.63;;
22320;SDS011;11328;53.928;18.522;2023-07-31T03:46:31;9.75;;;4.75;;
22320;SDS011;11328;53.928;18.522;2023-07-31T03:49:00;13.00;;;5.28;;
22320;SDS011;11328;53.928;18.522;2023-07-31T03:51:27;15.15;;;5.05;;
22320;SDS011;11328;53.928;18.522;2023-07-31T03:53:54;10.88;;;4.90;;
22320;SDS011;11328;53.928;18.522;2023-07-31T03:56:21;14.40;;;5.47;;
22320;SDS011;11328;53.928;18.522;2023-07-31T03:58:48;10.32;;;5.00;;
22320;SDS011;11328;53.928;18.522;2023-07-31T04:01:15;11.40;;;4.72;;
22320;SDS011;11328;53.928;18.522;2023-07-31T04:03:43;11.05;;;4.50;;
22320;SDS011;11328;53.928;18.522;2023-07-31T04:06:09;10.60;;;4.32;;
22320;SDS011;11328;53.928;18.522;2023-07-31T04:08:36;13.27;;;4.00;;
22320;SDS011;11328;53.928;18.522;2023-07-31T04:11:03;13.15;;;4.25;;
22320;SDS011;11328;53.928;18.522;2023-07-31T04:13:30;11.40;;;3.70;;
22320;SDS011;11328;53.928;18.522;2023-07-31T04:15:57;12.98;;;3.97;;
22320;SDS011;11328;53.928;18.522;2023-07-31T04:18:24;13.00;;;3.90;;
22320;SDS011;11328;53.928;18.522;2023-07-31T04:20:52;14.55;;;3.90;;
22320;SDS011;11328;53.928;18.522;2023-07-31T04:23:19;10.70;;;3.83;;
22320;SDS011;11328;53.928;18.522;2023-07-31T04:25:46;12.10;;;4.07;;
22320;SDS011;11328;53.928;18.522;2023-07-31T04:28:13;10.88;;;3.47;;
22320;SDS011;11328;53.928;18.522;2023-07-31T04:30:40;7.88;;;3.13;;
22320;SDS011;11328;53.928;18.522;2023-07-31T04:33:07;11.57;;;3.30;;
22320;SDS011;11328;53.928;18.522;2023-07-31T04:35:34;11.25;;;3.20;;
22320;SDS011;11328;53.928;18.522;2023-07-31T04:38:01;9.38;;;3.20;;
22320;SDS011;11328;53.928;18.522;2023-07-31T04:40:28;11.45;;;3.35;;
22320;SDS011;11328;53.928;18.522;2023-07-31T04:42:55;10.88;;;3.50;;
22320;SDS011;11328;53.928;18.522;2023-07-31T04:45:22;8.73;;;3.15;;
22320;SDS011;11328;53.928;18.522;2023-07-31T04:47:49;11.85;;;3.33;;
22320;SDS011;11328;53.928;18.522;2023-07-31T04:50:16;12.68;;;3.55;;
22320;SDS011;11328;53.928;18.522;2023-07-31T04:52:43;10.50;;;3.45;;
22320;SDS011;11328;53.928;18.522;2023-07-31T04:55:10;13.38;;;7.93;;
22320;SDS011;11328;53.928;18.522;2023-07-31T04:57:37;10.48;;;3.15;;
22320;SDS011;11328;53.928;18.522;2023-07-31T05:00:04;13.00;;;3.05;;
22320;SDS011;11328;53.928;18.522;2023-07-31T05:02:32;10.60;;;3.08;;
22320;SDS011;11328;53.928;18.522;2023-07-31T05:04:59;9.48;;;2.88;;
22320;SDS011;11328;53.928;18.522;2023-07-31T05:07:26;10.00;;;3.17;;
22320;SDS011;11328;53.928;18.522;2023-07-31T05:09:53;8.38;;;2.90;;
22320;SDS011;11328;53.928;18.522;2023-07-31T05:12:23;8.23;;;3.05;;
22320;SDS011;11328;53.928;18.522;2023-07-31T05:14:50;12.07;;;2.88;;
22320;SDS011;11328;53.928;18.522;2023-07-31T05:17:17;9.43;;;3.30;;
22320;SDS011;11328;53.928;18.522;2023-07-31T05:19:44;10.15;;;3.10;;
22320;SDS011;11328;53.928;18.522;2023-07-31T05:22:11;9.90;;;3.17;;
22320;SDS011;11328;53.928;18.522;2023-07-31T05:24:38;8.70;;;3.10;;
22320;SDS011;11328;53.928;18.522;2023-07-31T05:27:05;8.05;;;3.20;;
22320;SDS011;11328;53.928;18.522;2023-07-31T05:29:33;6.75;;;2.88;;
22320;SDS011;11328;53.928;18.522;2023-07-31T05:32:00;10.10;;;3.10;;
22320;SDS011;11328;53.928;18.522;2023-07-31T05:34:27;8.35;;;3.50;;
22320;SDS011;11328;53.928;18.522;2023-07-31T05:36:54;8.43;;;3.30;;
22320;SDS011;11328;53.928;18.522;2023-07-31T05:39:21;11.05;;;3.28;;
22320;SDS011;11328;53.928;18.522;2023-07-31T05:41:47;11.20;;;3.58;;
22320;SDS011;11328;53.928;18.522;2023-07-31T05:44:14;8.27;;;3.15;;
22320;SDS011;11328;53.928;18.522;2023-07-31T05:46:41;8.80;;;2.88;;
22320;SDS011;11328;53.928;18.522;2023-07-31T05:49:09;11.13;;;3.10;;
22320;SDS011;11328;53.928;18.522;2023-07-31T05:51:36;11.82;;;3.60;;
22320;SDS011;11328;53.928;18.522;2023-07-31T05:54:03;11.98;;;2.92;;
22320;SDS011;11328;53.928;18.522;2023-07-31T05:56:30;7.05;;;3.00;;
22320;SDS011;11328;53.928;18.522;2023-07-31T05:58:57;8.48;;;3.08;;
22320;SDS011;11328;53.928;18.522;2023-07-31T06:01:24;10.88;;;3.03;;
22320;SDS011;11328;53.928;18.522;2023-07-31T06:03:51;10.43;;;3.08;;
22320;SDS011;11328;53.928;18.522;2023-07-31T06:06:19;10.13;;;2.70;;
22320;SDS011;11328;53.928;18.522;2023-07-31T06:08:46;12.50;;;3.75;;
22320;SDS011;11328;53.928;18.522;2023-07-31T06:11:13;12.35;;;2.95;;
22320;SDS011;11328;53.928;18.522;2023-07-31T06:13:40;8.45;;;2.90;;
22320;SDS011;11328;53.928;18.522;2023-07-31T06:16:09;10.57;;;3.05;;
22320;SDS011;11328;53.928;18.522;2023-07-31T06:18:36;10.50;;;2.67;;
22320;SDS011;11328;53.928;18.522;2023-07-31T06:21:03;9.38;;;3.10;;
22320;SDS011;11328;53.928;18.522;2023-07-31T06:23:30;7.82;;;2.97;;
22320;SDS011;11328;53.928;18.522;2023-07-31T06:25:57;9.45;;;3.03;;
22320;SDS011;11328;53.928;18.522;2023-07-31T06:28:31;8.32;;;2.80;;
22320;SDS011;11328;53.928;18.522;2023-07-31T06:30:58;8.68;;;2.90;;
22320;SDS011;11328;53.928;18.522;2023-07-31T06:33:25;7.75;;;2.80;;
22320;SDS011;11328;53.928;18.522;2023-07-31T06:35:53;8.20;;;3.10;;
22320;SDS011;11328;53.928;18.522;2023-07-31T06:38:24;7.53;;;2.90;;
22320;SDS011;11328;53.928;18.522;2023-07-31T06:40:53;9.95;;;2.60;;
22320;SDS011;11328;53.928;18.522;2023-07-31T06:43:20;10.55;;;3.00;;
22320;SDS011;11328;53.928;18.522;2023-07-31T06:45:47;8.52;;;2.80;;
22320;SDS011;11328;53.928;18.522;2023-07-31T06:48:17;9.57;;;2.60;;
22320;SDS011;11328;53.928;18.522;2023-07-31T06:50:44;9.73;;;3.17;;
22320;SDS011;11328;53.928;18.522;2023-07-31T06:53:11;11.35;;;2.80;;
22320;SDS011;11328;53.928;18.522;2023-07-31T06:55:38;8.82;;;2.80;;
22320;SDS011;11328;53.928;18.522;2023-07-31T06:58:05;10.30;;;3.00;;
22320;SDS011;11328;53.928;18.522;2023-07-31T07:00:32;8.25;;;2.63;;
22320;SDS011;11328;53.928;18.522;2023-07-31T07:02:59;9.65;;;2.67;;
22320;SDS011;11328;53.928;18.522;2023-07-31T07:05:26;9.40;;;2.80;;
22320;SDS011;11328;53.928;18.522;2023-07-31T07:07:53;17.40;;;3.25;;
22320;SDS011;11328;53.928;18.522;2023-07-31T07:10:20;11.65;;;2.55;;
22320;SDS011;11328;53.928;18.522;2023-07-31T07:12:47;8.38;;;2.40;;
22320;SDS011;11328;53.928;18.522;2023-07-31T07:15:15;10.07;;;2.58;;
22320;SDS011;11328;53.928;18.522;2023-07-31T07:17:42;8.43;;;1.98;;
22320;SDS011;11328;53.928;18.522;2023-07-31T07:20:09;7.38;;;2.10;;
22320;SDS011;11328;53.928;18.522;2023-07-31T07:22:36;8.40;;;2.20;;
22320;SDS011;11328;53.928;18.522;2023-07-31T07:25:03;8.43;;;2.30;;
22320;SDS011;11328;53.928;18.522;2023-07-31T07:27:33;15.38;;;2.92;;
22320;SDS011;11328;53.928;18.522;2023-07-31T07:30:00;10.35;;;2.63;;
22320;SDS011;11328;53.928;18.522;2023-07-31T07:32:27;7.63;;;2.15;;
22320;SDS011;11328;53.928;18.522;2023-07-31T07:34:55;9.63;;;2.40;;
22320;SDS011;11328;53.928;18.522;2023-07-31T07:37:22;8.98;;;2.78;;
22320;SDS011;11328;53.928;18.522;2023-07-31T07:39:49;9.23;;;2.40;;
22320;SDS011;11328;53.928;18.522;2023-07-31T07:42:17;9.85;;;2.30;;
22320;SDS011;11328;53.928;18.522;2023-07-31T07:44:44;10.20;;;2.30;;
22320;SDS011;11328;53.928;18.522;2023-07-31T07:47:12;13.13;;;2.22;;
22320;SDS011;11328;53.928;18.522;2023-07-31T07:49:39;9.80;;;2.60;;
22320;SDS011;11328;53.928;18.522;2023-07-31T07:52:06;7.97;;;2.10;;
22320;SDS011;11328;53.928;18.522;2023-07-31T07:54:33;8.63;;;2.53;;
22320;SDS011;11328;53.928;18.522;2023-07-31T07:57:00;11.55;;;2.85;;
22320;SDS011;11328;53.928;18.522;2023-07-31T07:59:27;7.50;;;2.10;;
22320;SDS011;11328;53.928;18.522;2023-07-31T08:01:54;9.63;;;2.85;;
22320;SDS011;11328;53.928;18.522;2023-07-31T08:04:21;10.70;;;2.50;;
22320;SDS011;11328;53.928;18.522;2023-07-31T08:06:48;9.80;;;2.30;;
22320;SDS011;11328;53.928;18.522;2023-07-31T08:09:15;8.68;;;2.38;;
22320;SDS011;11328;53.928;18.522;2023-07-31T08:11:42;6.85;;;2.17;;
22320;SDS011;11328;53.928;18.522;2023-07-31T08:14:09;11.88;;;2.00;;
22320;SDS011;11328;53.928;18.522;2023-07-31T08:16:36;9.00;;;1.95;;
22320;SDS011;11328;53.928;18.522;2023-07-31T08:19:03;9.07;;;2.30;;
22320;SDS011;11328;53.928;18.522;2023-07-31T08:21:31;8.63;;;2.22;;
22320;SDS011;11328;53.928;18.522;2023-07-31T08:23:58;7.32;;;2.35;;
22320;SDS011;11328;53.928;18.522;2023-07-31T08:26:25;7.85;;;2.30;;
22320;SDS011;11328;53.928;18.522;2023-07-31T08:28:52;5.72;;;2.08;;
22320;SDS011;11328;53.928;18.522;2023-07-31T08:31:19;8.20;;;2.10;;
22320;SDS011;11328;53.928;18.522;2023-07-31T08:33:46;9.82;;;2.38;;
22320;SDS011;11328;53.928;18.522;2023-07-31T08:36:13;10.20;;;2.80;;
22320;SDS011;11328;53.928;18.522;2023-07-31T08:38:40;8.45;;;2.70;;
22320;SDS011;11328;53.928;18.522;2023-07-31T08:41:07;14.57;;;2.50;;
22320;SDS011;11328;53.928;18.522;2023-07-31T08:43:34;7.82;;;2.45;;
22320;SDS011;11328;53.928;18.522;2023-07-31T08:46:04;7.43;;;2.00;;
22320;SDS011;11328;53.928;18.522;2023-07-31T08:48:32;5.10;;;2.05;;
22320;SDS011;11328;53.928;18.522;2023-07-31T08:50:59;6.18;;;1.52;;
22320;SDS011;11328;53.928;18.522;2023-07-31T08:53:26;5.10;;;1.80;;
22320;SDS011;11328;53.928;18.522;2023-07-31T08:55:53;12.10;;;1.80;;
22320;SDS011;11328;53.928;18.522;2023-07-31T08:58:24;4.43;;;1.20;;
22320;SDS011;11328;53.928;18.522;2023-07-31T09:00:56;5.53;;;1.73;;
22320;SDS011;11328;53.928;18.522;2023-07-31T09:03:27;6.22;;;1.80;;
22320;SDS011;11328;53.928;18.522;2023-07-31T09:05:57;7.75;;;1.85;;
22320;SDS011;11328;53.928;18.522;2023-07-31T09:08:26;4.47;;;1.40;;
22320;SDS011;11328;53.928;18.522;2023-07-31T09:11:01;7.50;;;1.77;;
22320;SDS011;11328;53.928;18.522;2023-07-31T09:13:31;6.55;;;1.60;;
22320;SDS011;11328;53.928;18.522;2023-07-31T09:15:59;12.70;;;1.90;;
22320;SDS011;11328;53.928;18.522;2023-07-31T09:18:26;14.55;;;2.63;;
22320;SDS011;11328;53.928;18.522;2023-07-31T09:21:05;9.82;;;2.20;;
22320;SDS011;11328;53.928;18.522;2023-07-31T09:23:40;6.72;;;1.65;;
22320;SDS011;11328;53.928;18.522;2023-07-31T09:26:11;8.77;;;2.13;;
22320;SDS011;11328;53.928;18.522;2023-07-31T09:28:56;7.32;;;1.60;;
22320;SDS011;11328;53.928;18.522;2023-07-31T09:31:38;7.57;;;1.52;;
22320;SDS011;11328;53.928;18.522;2023-07-31T09:34:09;6.55;;;1.90;;
22320;SDS011;11328;53.928;18.522;2023-07-31T09:36:41;4.70;;;1.70;;
22320;SDS011;11328;53.928;18.522;2023-07-31T09:39:13;6.35;;;2.08;;
22320;SDS011;11328;53.928;18.522;2023-07-31T09:41:43;19.40;;;2.97;;
22320;SDS011;11328;53.928;18.522;2023-07-31T09:44:20;4.07;;;1.45;;
22320;SDS011;11328;53.928;18.522;2023-07-31T09:46:47;6.65;;;1.55;;
22320;SDS011;11328;53.928;18.522;2023-07-31T09:49:14;6.10;;;1.60;;
22320;SDS011;11328;53.928;18.522;2023-07-31T09:51:42;7.43;;;2.55;;
22320;SDS011;11328;53.928;18.522;2023-07-31T09:54:10;6.53;;;1.40;;
22320;SDS011;11328;53.928;18.522;2023-07-31T09:56:47;11.25;;;2.22;;
22320;SDS011;11328;53.928;18.522;2023-07-31T09:59:19;9.82;;;1.60;;
22320;SDS011;11328;53.928;18.522;2023-07-31T10:01:49;5.28;;;1.75;;
22320;SDS011;11328;53.928;18.522;2023-07-31T10:04:18;5.32;;;1.73;;
22320;SDS011;11328;53.928;18.522;2023-07-31T10:06:55;9.70;;;2.97;;
22320;SDS011;11328;53.928;18.522;2023-07-31T10:09:27;6.10;;;1.40;;
22320;SDS011;11328;53.928;18.522;2023-07-31T10:12:00;9.00;;;2.33;;
22320;SDS011;11328;53.928;18.522;2023-07-31T10:14:35;10.77;;;2.40;;
22320;SDS011;11328;53.928;18.522;2023-07-31T10:17:03;6.82;;;1.85;;
22320;SDS011;11328;53.928;18.522;2023-07-31T10:19:33;13.77;;;4.20;;
22320;SDS011;11328;53.928;18.522;2023-07-31T10:22:03;14.68;;;4.53;;
22320;SDS011;11328;53.928;18.522;2023-07-31T10:24:31;8.52;;;1.90;;
22320;SDS011;11328;53.928;18.522;2023-07-31T10:27:00;7.88;;;1.73;;
22320;SDS011;11328;53.928;18.522;2023-07-31T10:29:29;11.27;;;1.80;;
22320;SDS011;11328;53.928;18.522;2023-07-31T10:31:57;7.40;;;1.70;;
22320;SDS011;11328;53.928;18.522;2023-07-31T10:34:25;7.65;;;1.80;;
22320;SDS011;11328;53.928;18.522;2023-07-31T10:39:56;6.72;;;1.52;;
22320;SDS011;11328;53.928;18.522;2023-07-31T10:45:04;5.82;;;2.03;;
22320;SDS011;11328;53.928;18.522;2023-07-31T10:47:42;11.38;;;2.72;;
22320;SDS011;11328;53.928;18.522;2023-07-31T10:50:21;8.80;;;2.03;;
22320;SDS011;11328;53.928;18.522;2023-07-31T10:52:51;10.02;;;2.40;;
22320;SDS011;11328;53.928;18.522;2023-07-31T10:55:26;5.53;;;1.80;;
22320;SDS011;11328;53.928;18.522;2023-07-31T10:58:12;11.27;;;2.50;;
22320;SDS011;11328;53.928;18.522;2023-07-31T11:00:41;8.50;;;2.00;;
22320;SDS011;11328;53.928;18.522;2023-07-31T11:08:23;11.35;;;2.78;;
22320;SDS011;11328;53.928;18.522;2023-07-31T11:13:32;12.80;;;2.30;;
22320;SDS011;11328;53.928;18.522;2023-07-31T11:16:06;12.43;;;2.22;;
22320;SDS011;11328;53.928;18.522;2023-07-31T11:18:34;7.57;;;1.95;;
22320;SDS011;11328;53.928;18.522;2023-07-31T11:21:04;10.95;;;2.35;;
22320;SDS011;11328;53.928;18.522;2023-07-31T11:23:31;7.68;;;2.22;;
22320;SDS011;11328;53.928;18.522;2023-07-31T11:25:59;8.23;;;2.15;;
22320;SDS011;11328;53.928;18.522;2023-07-31T11:28:30;8.02;;;2.10;;
22320;SDS011;11328;53.928;18.522;2023-07-31T11:31:00;13.05;;;2.00;;
22320;SDS011;11328;53.928;18.522;2023-07-31T11:33:29;34.05;;;3.08;;
22320;SDS011;11328;53.928;18.522;2023-07-31T11:35:56;26.88;;;3.20;;
22320;SDS011;11328;53.928;18.522;2023-07-31T11:41:01;8.32;;;1.60;;
22320;SDS011;11328;53.928;18.522;2023-07-31T11:43:32;6.55;;;1.67;;
22320;SDS011;11328;53.928;18.522;2023-07-31T11:46:02;6.40;;;1.58;;
22320;SDS011;11328;53.928;18.522;2023-07-31T11:48:31;6.28;;;1.77;;
22320;SDS011;11328;53.928;18.522;2023-07-31T11:51:05;5.63;;;1.90;;
22320;SDS011;11328;53.928;18.522;2023-07-31T11:53:41;6.35;;;1.98;;
22320;SDS011;11328;53.928;18.522;2023-07-31T11:56:13;5.25;;;1.88;;
22320;SDS011;11328;53.928;18.522;2023-07-31T11:58:44;7.15;;;1.90;;
22320;SDS011;11328;53.928;18.522;2023-07-31T12:01:14;7.00;;;1.90;;
22320;SDS011;11328;53.928;18.522;2023-07-31T12:03:45;8.98;;;2.00;;
22320;SDS011;11328;53.928;18.522;2023-07-31T12:06:13;6.68;;;1.73;;
22320;SDS011;11328;53.928;18.522;2023-07-31T12:08:40;9.32;;;2.38;;
22320;SDS011;11328;53.928;18.522;2023-07-31T12:11:08;7.68;;;2.30;;
22320;SDS011;11328;53.928;18.522;2023-07-31T12:13:36;6.50;;;2.15;;
22320;SDS011;11328;53.928;18.522;2023-07-31T12:16:03;8.85;;;2.15;;
22320;SDS011;11328;53.928;18.522;2023-07-31T12:18:35;4.88;;;1.70;;
22320;SDS011;11328;53.928;18.522;2023-07-31T12:21:05;7.40;;;2.20;;
22320;SDS011;11328;53.928;18.522;2023-07-31T12:23:35;12.13;;;2.60;;
22320;SDS011;11328;53.928;18.522;2023-07-31T12:26:13;8.98;;;2.10;;
22320;SDS011;11328;53.928;18.522;2023-07-31T12:31:10;7.18;;;2.20;;
22320;SDS011;11328;53.928;18.522;2023-07-31T12:33:46;8.70;;;2.22;;
22320;SDS011;11328;53.928;18.522;2023-07-31T12:36:16;6.28;;;2.13;;
22320;SDS011;11328;53.928;18.522;2023-07-31T12:38:55;7.28;;;2.42;;
22320;SDS011;11328;53.928;18.522;2023-07-31T12:41:24;6.50;;;2.05;;
22320;SDS011;11328;53.928;18.522;2023-07-31T12:43:51;8.02;;;2.10;;
22320;SDS011;11328;53.928;18.522;2023-07-31T12:46:18;5.63;;;2.22;;
22320;SDS011;11328;53.928;18.522;2023-07-31T12:48:45;9.70;;;2.35;;
22320;SDS011;11328;53.928;18.522;2023-07-31T12:51:12;13.25;;;2.50;;
22320;SDS011;11328;53.928;18.522;2023-07-31T12:53:39;6.22;;;2.25;;
22320;SDS011;11328;53.928;18.522;2023-07-31T12:56:06;8.30;;;2.40;;
22320;SDS011;11328;53.928;18.522;2023-07-31T12:58:33;8.77;;;2.53;;
22320;SDS011;11328;53.928;18.522;2023-07-31T13:01:00;6.88;;;1.95;;
22320;SDS011;11328;53.928;18.522;2023-07-31T13:03:28;24.95;;;3.25;;
22320;SDS011;11328;53.928;18.522;2023-07-31T13:05:55;11.98;;;3.80;;
22320;SDS011;11328;53.928;18.522;2023-07-31T13:08:22;7.78;;;2.80;;
22320;SDS011;11328;53.928;18.522;2023-07-31T13:10:49;11.48;;;2.75;;
22320;SDS011;11328;53.928;18.522;2023-07-31T13:13:16;8.43;;;2.28;;
22320;SDS011;11328;53.928;18.522;2023-07-31T13:15:43;12.30;;;2.88;;
22320;SDS011;11328;53.928;18.522;2023-07-31T13:18:11;5.35;;;2.38;;
22320;SDS011;11328;53.928;18.522;2023-07-31T13:20:38;9.25;;;2.95;;
22320;SDS011;11328;53.928;18.522;2023-07-31T13:23:05;6.45;;;2.53;;
22320;SDS011;11328;53.928;18.522;2023-07-31T13:25:32;9.65;;;2.55;;
22320;SDS011;11328;53.928;18.522;2023-07-31T13:27:59;7.65;;;3.10;;
22320;SDS011;11328;53.928;18.522;2023-07-31T13:30:30;6.90;;;2.90;;
22320;SDS011;11328;53.928;18.522;2023-07-31T13:32:57;7.30;;;2.80;;
22320;SDS011;11328;53.928;18.522;2023-07-31T13:35:24;8.60;;;3.15;;
22320;SDS011;11328;53.928;18.522;2023-07-31T13:37:51;7.50;;;2.88;;
22320;SDS011;11328;53.928;18.522;2023-07-31T13:40:18;8.90;;;3.05;;
22320;SDS011;11328;53.928;18.522;2023-07-31T13:42:45;6.47;;;2.55;;
22320;SDS011;11328;53.928;18.522;2023-07-31T13:45:13;8.35;;;3.30;;
22320;SDS011;11328;53.928;18.522;2023-07-31T13:47:41;6.95;;;2.78;;
22320;SDS011;11328;53.928;18.522;2023-07-31T13:50:08;5.80;;;2.30;;
22320;SDS011;11328;53.928;18.522;2023-07-31T13:52:36;7.10;;;2.50;;
22320;SDS011;11328;53.928;18.522;2023-07-31T13:55:03;6.82;;;2.90;;
22320;SDS011;11328;53.928;18.522;2023-07-31T13:57:30;11.57;;;2.67;;
22320;SDS011;11328;53.928;18.522;2023-07-31T13:59:57;6.65;;;2.70;;
22320;SDS011;11328;53.928;18.522;2023-07-31T14:02:24;5.55;;;2.70;;
22320;SDS011;11328;53.928;18.522;2023-07-31T14:04:51;9.02;;;2.75;;
22320;SDS011;11328;53.928;18.522;2023-07-31T14:07:18;7.85;;;2.33;;
22320;SDS011;11328;53.928;18.522;2023-07-31T14:09:45;5.32;;;2.58;;
22320;SDS011;11328;53.928;18.522;2023-07-31T14:12:12;6.10;;;2.60;;
22320;SDS011;11328;53.928;18.522;2023-07-31T14:14:50;6.15;;;2.83;;
22320;SDS011;11328;53.928;18.522;2023-07-31T14:17:17;5.22;;;2.22;;
22320;SDS011;11328;53.928;18.522;2023-07-31T14:19:44;3.63;;;1.90;;
22320;SDS011;11328;53.928;18.522;2023-07-31T14:22:11;2.55;;;1.63;;
22320;SDS011;11328;53.928;18.522;2023-07-31T14:24:38;3.33;;;1.70;;
22320;SDS011;11328;53.928;18.522;2023-07-31T14:27:05;3.42;;;1.60;;
22320;SDS011;11328;53.928;18.522;2023-07-31T14:29:32;3.67;;;1.73;;
22320;SDS011;11328;53.928;18.522;2023-07-31T14:31:59;5.38;;;2.00;;
22320;SDS011;11328;53.928;18.522;2023-07-31T14:34:26;4.28;;;2.13;;
22320;SDS011;11328;53.928;18.522;2023-07-31T14:36:53;5.55;;;2.10;;
22320;SDS011;11328;53.928;18.522;2023-07-31T14:39:20;5.32;;;2.38;;
22320;SDS011;11328;53.928;18.522;2023-07-31T14:41:47;5.25;;;2.30;;
22320;SDS011;11328;53.928;18.522;2023-07-31T14:44:14;5.30;;;2.58;;
22320;SDS011;11328;53.928;18.522;2023-07-31T14:46:42;5.28;;;2.90;;
22320;SDS011;11328;53.928;18.522;2023-07-31T14:49:09;4.07;;;2.35;;
22320;SDS011;11328;53.928;18.522;2023-07-31T14:51:36;5.15;;;2.70;;
22320;SDS011;11328;53.928;18.522;2023-07-31T14:54:03;6.18;;;2.97;;
22320;SDS011;11328;53.928;18.522;2023-07-31T14:56:30;6.82;;;2.72;;
22320;SDS011;11328;53.928;18.522;2023-07-31T14:58:57;5.40;;;2.65;;